首页
METAR-TAF:

METAR-TAF

机场 :

科斯雷國際機場

科斯雷, 密克罗尼西亚群岛

纬度: 05-21N, 经度: 162-57E, 海拔: 3米

当前天气观测

该预报发布于2小时和1分钟前的23:50 UTC
风速12节,风向东北
温度 31°C
湿度 66%
气压 1014 hPa
能見度: 16.1公里
散云层高于2200英尺
多云层高于13000英尺
多云层高于30000英尺

METAR: PTSA 262350Z 05012KT 10SM SCT022 BKN130 BKN300 31/24 A2995

时间: 12:51 (01:51 UTC)

预报

该预报发布于2小时和24分钟前的23:27 UTC
预报有效从27日的 00点(UTC)到 27日的 24点(UTC)
风速10节,风向东转东北
能見度: 10公里
多云层高于2000英尺
阴天层高于30000英尺
附近有阵雨
从 27日的 0300点(UTC)
风速10节,风向东转东北
能見度: 10公里
散云层高于3000英尺
多云层高于5000英尺

TAF: PTSA 262327Z 2700/2724 06010KT P6SM VCSH BKN020 OVC300 FM270300 06010KT P6SM SCT030 BKN050

超过4000个机场的气象观测和天气预报(METAR&TAF报告)。

可查询的气象台以黄色和红色小点在地图上表示。

将鼠标移到小点上方,可查看气象台名称。

然后点击查看天气观测和预报。

如需切换地图:点击带黑十字的绿色按钮放大地图;点击带横线的绿色按钮缩小地图;或者点击绿色箭头查看邻近地区的地图。


METAR-TAF: